sensor_id;sensor_type;location;lat;lon;timestamp;pressure;altitude;pressure_sealevel;temperature;humidity
82148;BME280;71718;50.480;12.110;2024-02-04T00:00:24;98213.69;;;6.25;73.44
82148;BME280;71718;50.480;12.110;2024-02-04T00:02:50;98209.63;;;6.30;73.53
82148;BME280;71718;50.480;12.110;2024-02-04T00:05:17;98213.69;;;6.33;72.95
82148;BME280;71718;50.480;12.110;2024-02-04T00:07:44;98221.41;;;6.25;74.46
82148;BME280;71718;50.480;12.110;2024-02-04T00:10:10;98217.72;;;6.27;73.40
82148;BME280;71718;50.480;12.110;2024-02-04T00:12:37;98215.78;;;6.21;73.33
82148;BME280;71718;50.480;12.110;2024-02-04T00:15:04;98204.34;;;6.24;72.74
82148;BME280;71718;50.480;12.110;2024-02-04T00:17:31;98199.19;;;6.24;73.30
82148;BME280;71718;50.480;12.110;2024-02-04T00:19:57;98200.78;;;6.33;74.05
82148;BME280;71718;50.480;12.110;2024-02-04T00:22:24;98204.97;;;6.34;72.31
82148;BME280;71718;50.480;12.110;2024-02-04T00:24:50;98185.59;;;6.38;72.83
82148;BME280;71718;50.480;12.110;2024-02-04T00:27:17;98181.25;;;6.30;72.25
82148;BME280;71718;50.480;12.110;2024-02-04T00:29:43;98186.25;;;6.32;72.34
82148;BME280;71718;50.480;12.110;2024-02-04T00:32:10;98176.75;;;6.32;72.28
82148;BME280;71718;50.480;12.110;2024-02-04T00:34:36;98172.41;;;6.25;72.80
82148;BME280;71718;50.480;12.110;2024-02-04T00:37:03;98197.44;;;6.24;73.15
82148;BME280;71718;50.480;12.110;2024-02-04T00:39:29;98196.13;;;6.28;72.48
82148;BME280;71718;50.480;12.110;2024-02-04T00:41:56;98198.34;;;6.31;72.50
82148;BME280;71718;50.480;12.110;2024-02-04T00:44:22;98189.66;;;6.32;72.80
82148;BME280;71718;50.480;12.110;2024-02-04T00:46:48;98202.88;;;6.38;72.21
82148;BME280;71718;50.480;12.110;2024-02-04T00:49:15;98188.50;;;6.43;73.29
82148;BME280;71718;50.480;12.110;2024-02-04T00:51:41;98192.50;;;6.46;72.53
82148;BME280;71718;50.480;12.110;2024-02-04T00:54:08;98210.41;;;6.47;74.66
82148;BME280;71718;50.480;12.110;2024-02-04T00:56:34;98199.94;;;6.49;71.85
82148;BME280;71718;50.480;12.110;2024-02-04T00:59:01;98204.28;;;6.40;71.99
82148;BME280;71718;50.480;12.110;2024-02-04T01:01:27;98208.19;;;6.36;71.48
82148;BME280;71718;50.480;12.110;2024-02-04T01:03:54;98201.28;;;6.28;71.58
82148;BME280;71718;50.480;12.110;2024-02-04T01:06:20;98203.19;;;6.26;72.09
82148;BME280;71718;50.480;12.110;2024-02-04T01:08:47;98193.22;;;6.23;72.63
82148;BME280;71718;50.480;12.110;2024-02-04T01:11:13;98186.94;;;6.18;72.70
82148;BME280;71718;50.480;12.110;2024-02-04T01:13:39;98187.59;;;6.12;72.54
82148;BME280;71718;50.480;12.110;2024-02-04T01:16:06;98180.34;;;6.07;73.24
82148;BME280;71718;50.480;12.110;2024-02-04T01:18:32;98188.69;;;6.09;73.13
82148;BME280;71718;50.480;12.110;2024-02-04T01:20:59;98182.75;;;6.09;74.17
82148;BME280;71718;50.480;12.110;2024-02-04T01:23:25;98195.66;;;6.09;73.73
82148;BME280;71718;50.480;12.110;2024-02-04T01:25:52;98202.13;;;6.13;73.29
82148;BME280;71718;50.480;12.110;2024-02-04T01:28:18;98198.22;;;6.17;72.56
82148;BME280;71718;50.480;12.110;2024-02-04T01:30:44;98193.56;;;6.12;72.64
82148;BME280;71718;50.480;12.110;2024-02-04T01:33:11;98183.56;;;6.17;72.37
82148;BME280;71718;50.480;12.110;2024-02-04T01:35:37;98181.16;;;6.24;72.09
82148;BME280;71718;50.480;12.110;2024-02-04T01:38:04;98173.88;;;6.27;73.31
82148;BME280;71718;50.480;12.110;2024-02-04T01:40:30;98169.53;;;6.28;71.67
82148;BME280;71718;50.480;12.110;2024-02-04T01:42:56;98165.16;;;6.28;72.42
82148;BME280;71718;50.480;12.110;2024-02-04T01:45:23;98156.78;;;6.26;72.23
82148;BME280;71718;50.480;12.110;2024-02-04T01:47:49;98156.63;;;6.28;71.85
82148;BME280;71718;50.480;12.110;2024-02-04T01:50:16;98163.91;;;6.24;71.94
82148;BME280;71718;50.480;12.110;2024-02-04T01:52:43;98177.88;;;6.30;72.39
82148;BME280;71718;50.480;12.110;2024-02-04T01:55:11;98176.28;;;6.29;73.05
82148;BME280;71718;50.480;12.110;2024-02-04T01:57:37;98174.03;;;6.34;71.95
82148;BME280;71718;50.480;12.110;2024-02-04T02:00:04;98163.06;;;6.32;71.57
82148;BME280;71718;50.480;12.110;2024-02-04T02:02:32;98166.75;;;6.38;72.32
82148;BME280;71718;50.480;12.110;2024-02-04T02:05:00;98161.88;;;6.43;71.23
82148;BME280;71718;50.480;12.110;2024-02-04T02:07:27;98161.72;;;6.44;72.34
82148;BME280;71718;50.480;12.110;2024-02-04T02:09:54;98159.16;;;6.44;70.92
82148;BME280;71718;50.480;12.110;2024-02-04T02:12:43;98156.72;;;6.43;71.67
82148;BME280;71718;50.480;12.110;2024-02-04T02:15:22;98159.16;;;6.44;70.94
82148;BME280;71718;50.480;12.110;2024-02-04T02:17:59;98151.72;;;6.41;71.17
82148;BME280;71718;50.480;12.110;2024-02-04T02:20:41;98144.34;;;6.38;71.27
82148;BME280;71718;50.480;12.110;2024-02-04T02:23:22;98149.50;;;6.38;71.25
82148;BME280;71718;50.480;12.110;2024-02-04T02:25:55;98148.69;;;6.38;73.49
82148;BME280;71718;50.480;12.110;2024-02-04T02:28:22;98155.28;;;6.40;71.79
82148;BME280;71718;50.480;12.110;2024-02-04T02:30:48;98155.94;;;6.42;71.15
82148;BME280;71718;50.480;12.110;2024-02-04T02:33:15;98150.63;;;6.36;71.66
82148;BME280;71718;50.480;12.110;2024-02-04T02:35:43;98148.22;;;6.34;71.10
82148;BME280;71718;50.480;12.110;2024-02-04T02:38:25;98151.78;;;6.33;72.87
82148;BME280;71718;50.480;12.110;2024-02-04T02:40:59;98144.78;;;6.42;72.06
82148;BME280;71718;50.480;12.110;2024-02-04T02:43:30;98163.50;;;6.44;72.78
82148;BME280;71718;50.480;12.110;2024-02-04T02:45:58;98159.63;;;6.48;71.06
82148;BME280;71718;50.480;12.110;2024-02-04T02:48:25;98161.44;;;6.39;71.34
82148;BME280;71718;50.480;12.110;2024-02-04T02:50:51;98162.41;;;6.38;72.06
82148;BME280;71718;50.480;12.110;2024-02-04T02:53:18;98154.50;;;6.40;71.32
82148;BME280;71718;50.480;12.110;2024-02-04T02:55:44;98152.88;;;6.39;71.48
82148;BME280;71718;50.480;12.110;2024-02-04T02:58:11;98162.06;;;6.41;71.65
82148;BME280;71718;50.480;12.110;2024-02-04T03:00:37;98164.47;;;6.43;71.97
82148;BME280;71718;50.480;12.110;2024-02-04T03:03:04;98160.63;;;6.39;71.21
82148;BME280;71718;50.480;12.110;2024-02-04T03:05:31;98163.19;;;6.39;71.52
82148;BME280;71718;50.480;12.110;2024-02-04T03:07:58;98158.34;;;6.36;71.46
82148;BME280;71718;50.480;12.110;2024-02-04T03:10:25;98158.66;;;6.41;71.09
82148;BME280;71718;50.480;12.110;2024-02-04T03:12:51;98163.00;;;6.40;71.88
82148;BME280;71718;50.480;12.110;2024-02-04T03:15:17;98163.81;;;6.49;72.31
82148;BME280;71718;50.480;12.110;2024-02-04T03:17:44;98153.34;;;6.50;70.83
82148;BME280;71718;50.480;12.110;2024-02-04T03:20:10;98155.06;;;6.58;72.23
82148;BME280;71718;50.480;12.110;2024-02-04T03:22:37;98143.94;;;6.57;71.67
82148;BME280;71718;50.480;12.110;2024-02-04T03:25:04;98141.09;;;6.44;71.19
82148;BME280;71718;50.480;12.110;2024-02-04T03:27:30;98149.97;;;6.42;71.53
82148;BME280;71718;50.480;12.110;2024-02-04T03:29:57;98150.16;;;6.32;71.24
82148;BME280;71718;50.480;12.110;2024-02-04T03:32:23;98153.50;;;6.41;72.43
82148;BME280;71718;50.480;12.110;2024-02-04T03:34:49;98152.56;;;6.33;71.95
82148;BME280;71718;50.480;12.110;2024-02-04T03:37:16;98142.72;;;6.37;72.69
82148;BME280;71718;50.480;12.110;2024-02-04T03:39:42;98146.75;;;6.40;71.71
82148;BME280;71718;50.480;12.110;2024-02-04T03:42:08;98152.53;;;6.42;73.13
82148;BME280;71718;50.480;12.110;2024-02-04T03:44:35;98152.38;;;6.43;72.28
82148;BME280;71718;50.480;12.110;2024-02-04T03:47:01;98146.25;;;6.44;71.68
82148;BME280;71718;50.480;12.110;2024-02-04T03:49:27;98137.84;;;6.50;71.39
82148;BME280;71718;50.480;12.110;2024-02-04T03:51:54;98128.81;;;6.46;71.31
82148;BME280;71718;50.480;12.110;2024-02-04T03:54:20;98133.84;;;6.40;72.36
82148;BME280;71718;50.480;12.110;2024-02-04T03:56:47;98134.13;;;6.53;70.86
82148;BME280;71718;50.480;12.110;2024-02-04T03:59:13;98147.66;;;6.55;71.18
82148;BME280;71718;50.480;12.110;2024-02-04T04:01:40;98138.94;;;6.56;70.57
82148;BME280;71718;50.480;12.110;2024-02-04T04:04:06;98133.09;;;6.62;71.39
82148;BME280;71718;50.480;12.110;2024-02-04T04:06:33;98143.13;;;6.57;70.78
82148;BME280;71718;50.480;12.110;2024-02-04T04:08:59;98148.78;;;6.60;71.42
82148;BME280;71718;50.480;12.110;2024-02-04T04:11:26;98153.94;;;6.60;71.19
82148;BME280;71718;50.480;12.110;2024-02-04T04:13:52;98145.25;;;6.53;70.97
82148;BME280;71718;50.480;12.110;2024-02-04T04:16:22;98132.19;;;6.55;71.29
82148;BME280;71718;50.480;12.110;2024-02-04T04:18:48;98129.25;;;6.58;70.55
82148;BME280;71718;50.480;12.110;2024-02-04T04:21:15;98127.03;;;6.55;71.68
82148;BME280;71718;50.480;12.110;2024-02-04T04:23:42;98120.09;;;6.55;71.07
82148;BME280;71718;50.480;12.110;2024-02-04T04:26:08;98107.22;;;6.47;71.49
82148;BME280;71718;50.480;12.110;2024-02-04T04:28:34;98112.81;;;6.51;71.84
82148;BME280;71718;50.480;12.110;2024-02-04T04:31:01;98125.09;;;6.49;71.49
82148;BME280;71718;50.480;12.110;2024-02-04T04:33:27;98119.81;;;6.42;71.34
82148;BME280;71718;50.480;12.110;2024-02-04T04:35:54;98116.91;;;6.45;72.83
82148;BME280;71718;50.480;12.110;2024-02-04T04:38:20;98114.66;;;6.42;72.47
82148;BME280;71718;50.480;12.110;2024-02-04T04:40:47;98117.06;;;6.44;72.41
82148;BME280;71718;50.480;12.110;2024-02-04T04:43:13;98124.66;;;6.45;71.99
82148;BME280;71718;50.480;12.110;2024-02-04T04:45:40;98130.88;;;6.51;72.05
82148;BME280;71718;50.480;12.110;2024-02-04T04:48:07;98129.47;;;6.48;71.94
82148;BME280;71718;50.480;12.110;2024-02-04T04:50:33;98130.59;;;6.46;72.11
82148;BME280;71718;50.480;12.110;2024-02-04T04:53:00;98135.44;;;6.41;71.82
82148;BME280;71718;50.480;12.110;2024-02-04T04:55:26;98131.63;;;6.28;72.82
82148;BME280;71718;50.480;12.110;2024-02-04T04:57:52;98132.13;;;6.24;73.33
82148;BME280;71718;50.480;12.110;2024-02-04T05:00:19;98127.34;;;6.13;73.54
82148;BME280;71718;50.480;12.110;2024-02-04T05:02:45;98129.09;;;6.12;73.85
82148;BME280;71718;50.480;12.110;2024-02-04T05:05:12;98115.41;;;6.04;74.09
82148;BME280;71718;50.480;12.110;2024-02-04T05:07:39;98120.06;;;6.00;75.23
82148;BME280;71718;50.480;12.110;2024-02-04T05:10:05;98118.94;;;6.11;75.38
82148;BME280;71718;50.480;12.110;2024-02-04T05:12:33;98108.28;;;6.06;74.45
82148;BME280;71718;50.480;12.110;2024-02-04T05:14:59;98112.84;;;6.04;74.47
82148;BME280;71718;50.480;12.110;2024-02-04T05:17:26;98104.44;;;6.02;74.87
82148;BME280;71718;50.480;12.110;2024-02-04T05:19:53;98102.97;;;6.07;74.58
82148;BME280;71718;50.480;12.110;2024-02-04T05:22:19;98111.84;;;6.05;74.29
82148;BME280;71718;50.480;12.110;2024-02-04T05:24:46;98111.06;;;6.12;75.26
82148;BME280;71718;50.480;12.110;2024-02-04T05:27:12;98096.38;;;6.05;74.46
82148;BME280;71718;50.480;12.110;2024-02-04T05:29:38;98089.94;;;6.01;74.14
82148;BME280;71718;50.480;12.110;2024-02-04T05:32:05;98098.31;;;6.03;75.31
82148;BME280;71718;50.480;12.110;2024-02-04T05:34:31;98095.09;;;6.01;74.51
82148;BME280;71718;50.480;12.110;2024-02-04T05:36:58;98093.63;;;6.06;74.53
82148;BME280;71718;50.480;12.110;2024-02-04T05:39:24;98096.06;;;6.08;74.23
82148;BME280;71718;50.480;12.110;2024-02-04T05:41:51;98090.91;;;6.08;74.26
82148;BME280;71718;50.480;12.110;2024-02-04T05:44:17;98096.69;;;6.10;74.33
82148;BME280;71718;50.480;12.110;2024-02-04T05:46:43;98097.34;;;6.12;74.62
82148;BME280;71718;50.480;12.110;2024-02-04T05:49:10;98092.34;;;6.10;74.53
82148;BME280;71718;50.480;12.110;2024-02-04T05:51:38;98080.28;;;6.11;74.37
82148;BME280;71718;50.480;12.110;2024-02-04T05:54:05;98084.94;;;6.07;75.62
82148;BME280;71718;50.480;12.110;2024-02-04T05:56:31;98084.13;;;5.99;75.04
82148;BME280;71718;50.480;12.110;2024-02-04T05:58:57;98080.59;;;6.08;75.36
82148;BME280;71718;50.480;12.110;2024-02-04T06:01:24;98075.56;;;6.14;74.46
82148;BME280;71718;50.480;12.110;2024-02-04T06:03:50;98087.34;;;6.17;75.37
82148;BME280;71718;50.480;12.110;2024-02-04T06:06:17;98089.13;;;6.16;74.38
82148;BME280;71718;50.480;12.110;2024-02-04T06:08:44;98078.31;;;6.05;75.08
82148;BME280;71718;50.480;12.110;2024-02-04T06:11:11;98076.38;;;6.15;75.26
82148;BME280;71718;50.480;12.110;2024-02-04T06:13:40;98060.75;;;6.16;75.03
82148;BME280;71718;50.480;12.110;2024-02-04T06:16:06;98063.69;;;6.13;74.56
82148;BME280;71718;50.480;12.110;2024-02-04T06:18:35;98070.72;;;6.19;74.80
82148;BME280;71718;50.480;12.110;2024-02-04T06:21:01;98071.88;;;6.09;74.71
82148;BME280;71718;50.480;12.110;2024-02-04T06:23:28;98056.69;;;6.22;74.68
82148;BME280;71718;50.480;12.110;2024-02-04T06:25:54;98055.56;;;6.24;74.85
82148;BME280;71718;50.480;12.110;2024-02-04T06:28:20;98069.59;;;6.22;74.41
82148;BME280;71718;50.480;12.110;2024-02-04T06:30:48;98055.72;;;6.23;74.29
82148;BME280;71718;50.480;12.110;2024-02-04T06:33:15;98077.50;;;6.20;74.81
82148;BME280;71718;50.480;12.110;2024-02-04T06:35:42;98092.66;;;6.23;74.14
82148;BME280;71718;50.480;12.110;2024-02-04T06:38:09;98076.88;;;6.18;73.99
82148;BME280;71718;50.480;12.110;2024-02-04T06:40:35;98060.25;;;6.21;74.02
82148;BME280;71718;50.480;12.110;2024-02-04T06:43:01;98055.25;;;6.19;73.96
82148;BME280;71718;50.480;12.110;2024-02-04T06:45:28;98059.63;;;6.19;74.72
82148;BME280;71718;50.480;12.110;2024-02-04T06:47:54;98051.91;;;6.11;74.76
82148;BME280;71718;50.480;12.110;2024-02-04T06:50:21;98059.63;;;6.19;74.92
82148;BME280;71718;50.480;12.110;2024-02-04T06:52:47;98054.78;;;6.24;74.49
82148;BME280;71718;50.480;12.110;2024-02-04T06:55:14;98050.22;;;6.26;73.48
82148;BME280;71718;50.480;12.110;2024-02-04T06:57:40;98051.50;;;6.30;73.23
82148;BME280;71718;50.480;12.110;2024-02-04T07:00:07;98050.88;;;6.28;74.00
82148;BME280;71718;50.480;12.110;2024-02-04T07:02:34;98049.72;;;6.30;73.86
82148;BME280;71718;50.480;12.110;2024-02-04T07:05:00;98060.72;;;6.24;73.82
82148;BME280;71718;50.480;12.110;2024-02-04T07:07:27;98077.69;;;6.19;74.25
82148;BME280;71718;50.480;12.110;2024-02-04T07:09:53;98053.03;;;6.08;74.90
82148;BME280;71718;50.480;12.110;2024-02-04T07:12:20;98053.66;;;6.18;75.31
82148;BME280;71718;50.480;12.110;2024-02-04T07:14:46;98044.75;;;6.29;74.92
82148;BME280;71718;50.480;12.110;2024-02-04T07:17:13;98044.09;;;6.27;73.76
82148;BME280;71718;50.480;12.110;2024-02-04T07:19:39;98045.34;;;6.39;73.59
82148;BME280;71718;50.480;12.110;2024-02-04T07:22:05;98041.44;;;6.43;73.25
82148;BME280;71718;50.480;12.110;2024-02-04T07:24:32;98033.13;;;6.33;73.74
82148;BME280;71718;50.480;12.110;2024-02-04T07:26:58;98027.28;;;6.39;73.58
82148;BME280;71718;50.480;12.110;2024-02-04T07:29:25;98035.41;;;6.28;74.09
82148;BME280;71718;50.480;12.110;2024-02-04T07:31:51;98046.81;;;6.33;73.80
82148;BME280;71718;50.480;12.110;2024-02-04T07:34:17;98050.31;;;6.41;73.15
82148;BME280;71718;50.480;12.110;2024-02-04T07:36:44;98049.84;;;6.37;73.52
82148;BME280;71718;50.480;12.110;2024-02-04T07:39:10;98053.09;;;6.39;74.12
82148;BME280;71718;50.480;12.110;2024-02-04T07:41:37;98049.19;;;6.43;73.48
82148;BME280;71718;50.480;12.110;2024-02-04T07:44:03;98056.63;;;6.38;74.13
82148;BME280;71718;50.480;12.110;2024-02-04T07:46:30;98050.97;;;6.43;73.74
82148;BME280;71718;50.480;12.110;2024-02-04T07:48:56;98046.25;;;6.46;73.28
82148;BME280;71718;50.480;12.110;2024-02-04T07:51:22;98046.16;;;6.31;74.55
82148;BME280;71718;50.480;12.110;2024-02-04T07:53:49;98043.16;;;6.20;75.11
82148;BME280;71718;50.480;12.110;2024-02-04T07:56:15;98039.16;;;6.17;75.05
82148;BME280;71718;50.480;12.110;2024-02-04T07:58:41;98066.56;;;6.18;75.88
82148;BME280;71718;50.480;12.110;2024-02-04T08:01:08;98067.69;;;6.16;75.92
82148;BME280;71718;50.480;12.110;2024-02-04T08:03:35;98064.78;;;6.19;75.27
82148;BME280;71718;50.480;12.110;2024-02-04T08:06:01;98066.25;;;6.13;75.52
82148;BME280;71718;50.480;12.110;2024-02-04T08:08:28;98050.44;;;6.16;75.33
82148;BME280;71718;50.480;12.110;2024-02-04T08:10:55;98042.69;;;6.16;76.07
82148;BME280;71718;50.480;12.110;2024-02-04T08:13:23;98054.97;;;6.06;76.53
82148;BME280;71718;50.480;12.110;2024-02-04T08:15:50;98048.84;;;6.07;75.41
82148;BME280;71718;50.480;12.110;2024-02-04T08:18:16;98033.53;;;6.06;75.78
82148;BME280;71718;50.480;12.110;2024-02-04T08:20:43;98056.91;;;6.12;76.37
82148;BME280;71718;50.480;12.110;2024-02-04T08:23:09;98056.84;;;6.20;75.70
82148;BME280;71718;50.480;12.110;2024-02-04T08:25:35;98053.00;;;6.24;75.38
82148;BME280;71718;50.480;12.110;2024-02-04T08:28:02;98061.81;;;6.30;75.39
82148;BME280;71718;50.480;12.110;2024-02-04T08:30:28;98056.50;;;6.31;74.90
82148;BME280;71718;50.480;12.110;2024-02-04T08:32:55;98059.22;;;6.30;74.98
82148;BME280;71718;50.480;12.110;2024-02-04T08:35:21;98066.03;;;6.23;75.32
82148;BME280;71718;50.480;12.110;2024-02-04T08:37:47;98072.63;;;6.25;75.59
82148;BME280;71718;50.480;12.110;2024-02-04T08:40:14;98070.25;;;6.24;74.78
82148;BME280;71718;50.480;12.110;2024-02-04T08:42:40;98078.97;;;6.15;76.00
82148;BME280;71718;50.480;12.110;2024-02-04T08:45:07;98068.84;;;6.13;75.88
82148;BME280;71718;50.480;12.110;2024-02-04T08:47:34;98059.13;;;6.15;75.47
82148;BME280;71718;50.480;12.110;2024-02-04T08:50:00;98051.84;;;6.27;75.60
82148;BME280;71718;50.480;12.110;2024-02-04T08:52:26;98054.84;;;6.39;74.98
82148;BME280;71718;50.480;12.110;2024-02-04T08:54:53;98060.03;;;6.30;75.13
82148;BME280;71718;50.480;12.110;2024-02-04T08:57:19;98053.03;;;6.47;74.62
82148;BME280;71718;50.480;12.110;2024-02-04T08:59:46;98043.75;;;6.61;73.75
82148;BME280;71718;50.480;12.110;2024-02-04T09:02:12;98042.78;;;6.62;73.27
82148;BME280;71718;50.480;12.110;2024-02-04T09:04:38;98036.44;;;6.72;73.38
82148;BME280;71718;50.480;12.110;2024-02-04T09:07:05;98040.50;;;6.90;72.74
82148;BME280;71718;50.480;12.110;2024-02-04T09:09:32;98051.47;;;6.92;72.40
82148;BME280;71718;50.480;12.110;2024-02-04T09:11:59;98048.63;;;6.87;73.38
82148;BME280;71718;50.480;12.110;2024-02-04T09:14:25;98040.22;;;6.85;72.67
82148;BME280;71718;50.480;12.110;2024-02-04T09:16:51;98024.91;;;6.83;72.64
82148;BME280;71718;50.480;12.110;2024-02-04T09:19:18;98047.69;;;6.80;72.91
82148;BME280;71718;50.480;12.110;2024-02-04T09:21:44;98037.34;;;6.80;73.10
82148;BME280;71718;50.480;12.110;2024-02-04T09:24:11;98039.34;;;6.69;73.36
82148;BME280;71718;50.480;12.110;2024-02-04T09:26:37;98044.69;;;6.68;73.93
82148;BME280;71718;50.480;12.110;2024-02-04T09:29:04;98040.91;;;6.79;73.63
82148;BME280;71718;50.480;12.110;2024-02-04T09:31:31;98033.81;;;6.81;72.98
82148;BME280;71718;50.480;12.110;2024-02-04T09:33:57;98032.13;;;6.88;72.42
82148;BME280;71718;50.480;12.110;2024-02-04T09:36:24;98035.88;;;6.85;73.39
82148;BME280;71718;50.480;12.110;2024-02-04T09:38:51;98037.06;;;6.97;72.97
82148;BME280;71718;50.480;12.110;2024-02-04T09:41:17;98039.41;;;7.07;71.78
82148;BME280;71718;50.480;12.110;2024-02-04T09:43:44;98037.44;;;7.09;72.41
82148;BME280;71718;50.480;12.110;2024-02-04T09:46:11;98042.63;;;7.09;71.72
82148;BME280;71718;50.480;12.110;2024-02-04T09:48:39;98046.00;;;7.09;71.53
82148;BME280;71718;50.480;12.110;2024-02-04T09:51:06;98048.31;;;7.04;71.50
82148;BME280;71718;50.480;12.110;2024-02-04T09:53:34;98051.75;;;6.97;72.46
82148;BME280;71718;50.480;12.110;2024-02-04T09:56:03;98047.38;;;6.97;71.93
82148;BME280;71718;50.480;12.110;2024-02-04T09:58:30;98046.66;;;6.89;72.72
82148;BME280;71718;50.480;12.110;2024-02-04T10:00:57;98053.81;;;6.79;73.29
82148;BME280;71718;50.480;12.110;2024-02-04T10:03:23;98056.09;;;6.73;73.52
82148;BME280;71718;50.480;12.110;2024-02-04T10:05:50;98044.06;;;6.66;73.43
82148;BME280;71718;50.480;12.110;2024-02-04T10:08:16;98044.97;;;6.73;73.31
82148;BME280;71718;50.480;12.110;2024-02-04T10:10:47;98057.59;;;6.68;74.24
82148;BME280;71718;50.480;12.110;2024-02-04T10:13:14;98068.84;;;6.75;74.01
82148;BME280;71718;50.480;12.110;2024-02-04T10:15:41;98061.91;;;6.75;73.62
82148;BME280;71718;50.480;12.110;2024-02-04T10:18:08;98063.19;;;6.71;73.63
82148;BME280;71718;50.480;12.110;2024-02-04T10:20:35;98069.47;;;6.77;74.12
82148;BME280;71718;50.480;12.110;2024-02-04T10:23:01;98065.88;;;6.86;73.78
82148;BME280;71718;50.480;12.110;2024-02-04T10:25:27;98047.97;;;6.85;73.74
82148;BME280;71718;50.480;12.110;2024-02-04T10:27:54;98041.47;;;6.89;73.88
82148;BME280;71718;50.480;12.110;2024-02-04T10:30:21;98033.69;;;6.97;72.87
82148;BME280;71718;50.480;12.110;2024-02-04T10:32:50;98026.97;;;6.88;73.78
82148;BME280;71718;50.480;12.110;2024-02-04T10:35:19;98018.09;;;6.90;73.47
82148;BME280;71718;50.480;12.110;2024-02-04T10:37:46;98007.50;;;7.00;73.46
82148;BME280;71718;50.480;12.110;2024-02-04T10:40:12;98006.13;;;7.12;72.18
82148;BME280;71718;50.480;12.110;2024-02-04T10:42:42;98005.13;;;7.13;72.68
82148;BME280;71718;50.480;12.110;2024-02-04T10:45:09;97998.13;;;7.22;72.30
82148;BME280;71718;50.480;12.110;2024-02-04T10:47:37;98009.28;;;7.37;72.12
82148;BME280;71718;50.480;12.110;2024-02-04T10:50:05;97994.75;;;7.50;71.24
82148;BME280;71718;50.480;12.110;2024-02-04T10:52:37;98002.53;;;7.50;70.78
82148;BME280;71718;50.480;12.110;2024-02-04T10:55:10;98000.47;;;7.46;71.08
82148;BME280;71718;50.480;12.110;2024-02-04T10:57:38;98024.63;;;7.38;71.39
82148;BME280;71718;50.480;12.110;2024-02-04T11:00:05;97977.91;;;7.25;71.64
82148;BME280;71718;50.480;12.110;2024-02-04T11:02:36;97972.38;;;7.28;72.35
82148;BME280;71718;50.480;12.110;2024-02-04T11:05:03;97971.06;;;7.32;71.96
82148;BME280;71718;50.480;12.110;2024-02-04T11:07:33;97965.81;;;7.40;72.11
82148;BME280;71718;50.480;12.110;2024-02-04T11:10:00;97958.06;;;7.55;71.09
82148;BME280;71718;50.480;12.110;2024-02-04T11:12:28;97956.91;;;7.57;71.39
82148;BME280;71718;50.480;12.110;2024-02-04T11:14:59;97936.78;;;7.53;71.64
82148;BME280;71718;50.480;12.110;2024-02-04T11:18:00;97944.31;;;7.54;70.74
82148;BME280;71718;50.480;12.110;2024-02-04T11:23:55;97936.22;;;7.57;70.82
82148;BME280;71718;50.480;12.110;2024-02-04T11:26:28;97931.41;;;7.54;71.08
82148;BME280;71718;50.480;12.110;2024-02-04T11:28:55;97922.66;;;7.55;71.30
82148;BME280;71718;50.480;12.110;2024-02-04T11:31:21;97927.41;;;7.52;71.31
82148;BME280;71718;50.480;12.110;2024-02-04T11:33:50;97916.72;;;7.40;71.83
82148;BME280;71718;50.480;12.110;2024-02-04T11:36:17;97916.09;;;7.24;72.98
82148;BME280;71718;50.480;12.110;2024-02-04T11:38:47;97905.56;;;7.25;72.51
82148;BME280;71718;50.480;12.110;2024-02-04T11:41:24;97916.72;;;7.26;73.07
82148;BME280;71718;50.480;12.110;2024-02-04T11:43:55;97914.94;;;7.26;72.94
82148;BME280;71718;50.480;12.110;2024-02-04T11:46:30;97910.22;;;7.30;72.47
82148;BME280;71718;50.480;12.110;2024-02-04T11:48:56;97909.75;;;7.41;72.11
82148;BME280;71718;50.480;12.110;2024-02-04T11:51:24;97906.81;;;7.44;72.53
82148;BME280;71718;50.480;12.110;2024-02-04T11:53:51;97901.22;;;7.40;71.72
82148;BME280;71718;50.480;12.110;2024-02-04T11:56:21;97912.25;;;7.49;71.99
82148;BME280;71718;50.480;12.110;2024-02-04T11:58:51;97920.28;;;7.54;72.62
82148;BME280;71718;50.480;12.110;2024-02-04T12:01:17;97919.22;;;7.63;71.36
82148;BME280;71718;50.480;12.110;2024-02-04T12:03:47;97915.91;;;7.54;71.47
82148;BME280;71718;50.480;12.110;2024-02-04T12:06:14;97915.91;;;7.54;72.22
82148;BME280;71718;50.480;12.110;2024-02-04T12:08:41;97909.22;;;7.60;71.33
82148;BME280;71718;50.480;12.110;2024-02-04T12:11:08;97914.13;;;7.55;71.59
82148;BME280;71718;50.480;12.110;2024-02-04T12:13:35;97905.75;;;7.68;71.84
82148;BME280;71718;50.480;12.110;2024-02-04T12:16:06;97914.75;;;7.57;71.59
82148;BME280;71718;50.480;12.110;2024-02-04T12:18:32;97905.47;;;7.63;71.15
82148;BME280;71718;50.480;12.110;2024-02-04T12:20:59;97908.41;;;7.59;71.69
82148;BME280;71718;50.480;12.110;2024-02-04T12:23:26;97901.03;;;7.56;71.89
82148;BME280;71718;50.480;12.110;2024-02-04T12:25:52;97903.97;;;7.53;71.89
82148;BME280;71718;50.480;12.110;2024-02-04T12:28:19;97907.19;;;7.41;72.22
82148;BME280;71718;50.480;12.110;2024-02-04T12:30:54;97889.00;;;7.34;72.92
82148;BME280;71718;50.480;12.110;2024-02-04T12:33:20;97893.03;;;7.22;73.47
82148;BME280;71718;50.480;12.110;2024-02-04T12:35:51;97889.38;;;7.16;73.57
82148;BME280;71718;50.480;12.110;2024-02-04T12:38:17;97881.44;;;7.18;73.36
82148;BME280;71718;50.480;12.110;2024-02-04T12:40:44;97883.31;;;7.09;73.87
82148;BME280;71718;50.480;12.110;2024-02-04T12:43:11;97886.53;;;6.97;74.80
82148;BME280;71718;50.480;12.110;2024-02-04T12:45:37;97885.88;;;7.09;74.26
82148;BME280;71718;50.480;12.110;2024-02-04T12:48:04;97873.69;;;7.03;74.42
82148;BME280;71718;50.480;12.110;2024-02-04T12:50:31;97881.16;;;6.98;74.81
82148;BME280;71718;50.480;12.110;2024-02-04T12:53:04;97878.50;;;7.06;74.06
82148;BME280;71718;50.480;12.110;2024-02-04T12:55:33;97877.50;;;7.07;73.95
82148;BME280;71718;50.480;12.110;2024-02-04T12:58:07;97876.72;;;7.07;73.89
82148;BME280;71718;50.480;12.110;2024-02-04T13:00:36;97871.28;;;7.02;74.33
82148;BME280;71718;50.480;12.110;2024-02-04T13:03:03;97873.78;;;7.10;73.96